Portada
METAR-TAF:

METAR-TAF

Aeroports :

Kununurra, Austràlia

latitud: 15-46S, longitud: 128-42E, altitud: 44 m

Observació

L'informe es va fer fa 18 minuts, a les 12:00 UTC
Vent calma
Temperatura 25°C
Humitat 54%
Pressió 1014 hPa
Visibilitat: 2600 m

METAR: YPKU 181200Z AUTO 00000KT 2600 // NCD 25/15 Q1014

Hora: 20:18 (12:18 UTC)

Pronòstic

L'informe es va fer fa 5 hores i 33 minuts, a les 06:45 UTC
Pronòstic vàlid del 18 a les 08 UTC al 18 a les 20 UTC
Vent 3 kt amb direcció variable
Visibilitat 10 km o més
Escasses núvols a una alçada de 2000 ft

TAF: YPKU 180645Z 1808/1820 VRB03KT 9999 FEW020

Observacions i pronòstics meteorològics de més de 4000 aeroports (METAR i TAF).

Les estacions disponibles són els punts grocs i vermells al mapa.

Posi el ratolí al punt desitjat per veure el nom de l'estació.

Feu clic per veure les observacions i els pronòstics meteorològics.

Per canviar el mapa: feu clic els botons verds amb una creu de color negre per apropar; al botó verd amb un guió per allunyar la imatge; o en les fletxes verdes per a mapes adjacents.


METAR-TAF: